Accueil
METAR-TAF:

METAR-TAF

Aéroports :

Aéroport de Venise-Marco-Polo

Venise, Italie

latitude: 45-30N, longitude: 012-20E, altitude: 2 m

Observation

Le bulletin a été fait il y a 22 minutes, à 08:20 UTC
Vent 7 kt de nord
Température 5°C
Humidité 48%
Pression 1035 hPa
Visibilité 10 km ou plus
Quelques nuages à une hauteur de 4800 ft

METAR: LIPZ 230820Z 36007KT 9999 FEW048 05/M05 Q1035 NOSIG

Heure: 09:42 (08:42 UTC)

Prévision

Le bulletin a été fait il y a 3 heures et 42 minutes, à 05:00 UTC
Prévision valable du 23 à 06 UTC au 24 à 12 UTC
Vent 12 kt de est
Visibilité 10 km ou plus
pas de nuages en-dessous de 1500 mètres et pas de cumulonimbus.
Evoluant progressivement
du 24 à 02 UTC au 24 à 04 UTC
Vent 5 kt de direction variable

TAF: LIPZ 230500Z 2306/2412 09012KT CAVOK BECMG 2402/2404 VRB05KT

Observations et prévisions météorologiques de plus de 4000 aéroports (messages METAR et TAF).

Les stations disponibles sont représentées par des disques jaunes et rouges sur la carte.

Passer la souris dessus pour voir le nom de la station.

Cliquer dessus pour voir les observations et prévisions météorologiques.

Pour changer de carte: cliquez sur les boutons verts avec une croix noire pour zoomer, sur le bouton vert avec un tiret pour effectuer un zoom arrière, ou sur les flèches vertes pour les cartes adjacentes.


METAR-TAF: